Time;durP1;ratioP1;P1;durP2;ratioP2;P2;SDS_P1;SDS_P2;PMS_P1;PMS_P2;Temp;Humidity;BMP_temperature;BMP_pressure;BME280_temperature;BME280_humidity;BME280_pressure;Samples;Min_cycle;Max_cycle;Signal;HPM_P1;HPM_P2
2021/04/26 00:02:04;;;;;;;5.80;1.70;;;;;;;5.87;55.95;99127.22;5070425;28;20103;-73
2021/04/26 00:04:29;;;;;;;4.35;1.67;;;;;;;5.85;55.76;99137.28;5054761;28;20029;-73
2021/04/26 00:06:54;;;;;;;4.85;1.50;;;;;;;5.91;55.79;99123.19;5072369;28;20031;-73
2021/04/26 00:09:20;;;;;;;4.97;1.70;;;;;;;5.82;55.90;99123.38;5054337;28;20028;-72
2021/04/26 00:11:45;;;;;;;7.32;2.15;;;;;;;5.78;56.46;99122.84;5070242;28;20029;-73
2021/04/26 00:14:11;;;;;;;8.45;1.60;;;;;;;5.68;56.09;99114.91;5064915;28;20098;-73
2021/04/26 00:16:36;;;;;;;6.07;1.67;;;;;;;5.57;56.90;99109.88;5060643;28;20121;-73
2021/04/26 00:19:03;;;;;;;8.35;2.13;;;;;;;5.52;57.11;99112.19;5051993;28;20394;-73
2021/04/26 00:21:29;;;;;;;6.75;1.98;;;;;;;5.46;57.50;99108.31;5065545;28;20042;-73
2021/04/26 00:23:54;;;;;;;5.70;2.30;;;;;;;5.53;57.31;99091.56;5071217;28;20036;-73
2021/04/26 00:26:19;;;;;;;4.82;2.42;;;;;;;5.44;57.31;99083.50;5070755;28;20052;-73
2021/04/26 00:28:45;;;;;;;7.60;2.22;;;;;;;5.60;57.77;99095.28;5070236;28;20028;-73
2021/04/26 00:31:10;;;;;;;4.72;2.10;;;;;;;5.57;57.72;99090.25;5071437;28;20024;-73
2021/04/26 00:33:35;;;;;;;6.85;2.22;;;;;;;5.64;57.68;99080.53;5076205;28;20028;-73
2021/04/26 00:36:01;;;;;;;8.07;2.60;;;;;;;5.52;57.66;99079.16;5066843;28;20029;-73
2021/04/26 00:38:26;;;;;;;8.35;2.45;;;;;;;5.42;58.33;99080.16;5062680;28;20557;-73
2021/04/26 00:40:52;;;;;;;7.07;2.30;;;;;;;5.24;58.51;99066.03;5075306;28;20016;-73
2021/04/26 00:43:17;;;;;;;8.88;2.30;;;;;;;5.30;58.78;99086.00;5057311;28;20027;-73
2021/04/26 00:45:43;;;;;;;4.32;2.13;;;;;;;5.24;58.90;99088.31;5073138;28;20028;-73
2021/04/26 00:48:08;;;;;;;6.15;2.25;;;;;;;5.37;58.40;99070.91;5075390;28;20073;-73
2021/04/26 00:50:34;;;;;;;6.15;2.33;;;;;;;5.24;59.18;99071.38;5075431;28;20021;-73
2021/04/26 00:53:02;;;;;;;5.88;2.47;;;;;;;5.14;59.58;99076.03;5057292;28;20028;-74
2021/04/26 00:55:31;;;;;;;5.38;2.42;;;;;;;5.06;59.28;99068.81;5075161;28;20052;-73
2021/04/26 00:57:56;;;;;;;6.40;2.70;;;;;;;5.01;59.56;99063.91;5056352;28;20397;-73
2021/04/26 01:00:23;;;;;;;7.25;2.60;;;;;;;4.93;59.52;99061.19;5074855;28;20031;-73
2021/04/26 01:02:48;;;;;;;5.43;2.65;;;;;;;4.77;60.68;99064.66;5058802;28;20426;-72
2021/04/26 01:05:18;;;;;;;6.28;2.58;;;;;;;4.91;60.05;99060.53;5076202;28;20032;-72
2021/04/26 01:07:44;;;;;;;4.15;2.60;;;;;;;4.91;60.27;99068.56;5046364;28;20026;-72
2021/04/26 01:10:12;;;;;;;6.10;2.40;;;;;;;4.88;60.34;99060.84;5064558;28;20025;-72
2021/04/26 01:12:49;;;;;;;7.03;2.65;;;;;;;4.77;61.33;99058.44;5075345;28;20031;-72
2021/04/26 01:15:14;;;;;;;9.35;3.22;;;;;;;4.65;61.16;99046.31;5054904;28;20478;-72
2021/04/26 01:17:45;;;;;;;5.20;2.88;;;;;;;4.55;61.45;99031.19;5075871;28;20027;-72
2021/04/26 01:20:31;;;;;;;7.05;2.80;;;;;;;4.61;61.46;99043.09;5075949;28;20044;-72
2021/04/26 01:23:24;;;;;;;4.05;2.50;;;;;;;4.72;60.87;99039.34;5075228;28;20031;-71
2021/04/26 01:25:51;;;;;;;7.75;2.88;;;;;;;4.55;61.61;99022.31;5056772;28;20031;-72
2021/04/26 01:28:35;;;;;;;4.60;2.50;;;;;;;4.50;62.27;99024.63;5067248;28;20025;-72
2021/04/26 01:31:20;;;;;;;7.45;2.80;;;;;;;4.48;62.32;99016.78;5075566;28;20025;-71
2021/04/26 01:33:51;;;;;;;11.43;3.47;;;;;;;4.49;61.80;98999.69;5079250;28;20025;-72
2021/04/26 01:36:22;;;;;;;3.85;2.55;;;;;;;4.57;62.19;98983.63;5091157;28;20009;-72
2021/04/26 01:38:49;;;;;;;13.32;3.63;;;;;;;4.70;61.49;98985.03;5089982;28;20077;-72
2021/04/26 01:41:16;;;;;;;5.75;3.10;;;;;;;4.81;61.56;98982.06;5096557;28;20024;-72
2021/04/26 01:43:42;;;;;;;9.05;3.13;;;;;;;4.89;61.19;98981.25;5087386;28;20035;-72
2021/04/26 01:46:12;;;;;;;7.15;3.15;;;;;;;4.69;61.06;98984.22;5094044;28;20024;-72
2021/04/26 01:48:47;;;;;;;5.03;2.67;;;;;;;4.64;61.31;98991.03;5095961;28;20025;-72
2021/04/26 01:51:13;;;;;;;5.15;3.25;;;;;;;4.50;62.18;98976.41;5097013;28;20036;-72
2021/04/26 01:53:40;;;;;;;7.93;3.67;;;;;;;4.53;62.05;98984.13;5098143;28;20032;-72
2021/04/26 01:56:08;;;;;;;10.18;3.33;;;;;;;4.48;62.13;98986.44;5117404;28;20046;-72
2021/04/26 01:58:37;;;;;;;7.95;2.60;;;;;;;4.50;61.64;98974.56;5076200;28;20477;-71
2021/04/26 02:01:02;;;;;;;14.68;3.40;;;;;;;4.40;62.75;98981.88;5076436;28;20034;-71
2021/04/26 02:03:28;;;;;;;5.47;2.85;;;;;;;4.29;62.72;98983.00;5077170;28;20032;-72
2021/04/26 02:05:56;;;;;;;5.55;2.70;;;;;;;4.29;62.38;98998.22;5075977;28;20037;-72
2021/04/26 02:08:23;;;;;;;7.10;3.42;;;;;;;4.16;62.83;98996.81;5060998;28;20036;-72
2021/04/26 02:10:49;;;;;;;6.65;3.05;;;;;;;3.99;63.83;98988.84;5076308;28;20070;-72
2021/04/26 02:13:22;;;;;;;8.18;3.22;;;;;;;3.90;64.12;99001.31;5076435;28;20040;-72
2021/04/26 02:15:50;;;;;;;6.22;3.20;;;;;;;3.71;64.72;99005.00;5058717;28;20055;-72
2021/04/26 02:18:15;;;;;;;5.53;2.95;;;;;;;3.67;65.57;99011.69;5059928;28;20078;-72
2021/04/26 02:20:41;;;;;;;8.88;3.00;;;;;;;3.63;65.15;98995.06;5060184;28;20156;-72
2021/04/26 02:23:06;;;;;;;7.38;3.00;;;;;;;3.63;65.55;99002.28;5078215;28;20062;-72
2021/04/26 02:25:32;;;;;;;7.85;3.03;;;;;;;3.57;64.96;99000.22;5060769;28;20036;-71
2021/04/26 02:27:57;;;;;;;4.78;3.10;;;;;;;3.51;65.51;98999.84;5060085;28;20363;-72
2021/04/26 02:30:23;;;;;;;10.40;2.80;;;;;;;3.48;65.93;98993.94;5060849;28;20048;-72
2021/04/26 02:32:58;;;;;;;8.52;3.03;;;;;;;3.37;66.16;98988.81;5056597;28;20036;-72
2021/04/26 02:35:34;;;;;;;7.78;3.00;;;;;;;3.38;66.04;98993.16;5067913;28;20052;-72
2021/04/26 02:38:03;;;;;;;7.57;3.00;;;;;;;3.29;66.44;98987.75;5087424;28;20452;-72
2021/04/26 02:40:38;;;;;;;8.57;3.27;;;;;;;3.08;66.61;98992.56;5081999;22;20571;-69
2021/04/26 02:43:04;;;;;;;9.70;3.80;;;;;;;2.96;67.30;99005.31;5071838;28;20286;-70
2021/04/26 02:45:33;;;;;;;5.88;3.22;;;;;;;2.83;67.71;99005.66;5067890;28;20059;-71
2021/04/26 02:48:00;;;;;;;10.25;3.50;;;;;;;2.82;68.12;99003.94;5057880;28;20043;-70
2021/04/26 02:50:28;;;;;;;9.85;3.72;;;;;;;3.04;67.33;99004.56;5052355;28;20033;-70
2021/04/26 02:52:54;;;;;;;7.97;3.30;;;;;;;2.95;67.13;99000.09;5023638;28;20025;-70
2021/04/26 02:55:22;;;;;;;6.43;3.13;;;;;;;3.05;67.29;99000.88;5051338;28;20021;-69
2021/04/26 02:57:49;;;;;;;8.70;3.42;;;;;;;3.20;66.53;98988.69;5051161;28;20482;-69
2021/04/26 03:00:17;;;;;;;9.70;3.53;;;;;;;3.18;66.58;99012.03;5047267;28;20018;-69
2021/04/26 03:02:43;;;;;;;10.27;3.63;;;;;;;3.19;67.14;99011.03;5049544;28;20071;-70
2021/04/26 03:05:10;;;;;;;7.80;3.88;;;;;;;3.10;67.14;99008.44;5046067;28;20026;-70
2021/04/26 03:07:37;;;;;;;6.65;2.63;;;;;;;2.99;67.58;99006.84;5045959;28;20043;-70
2021/04/26 03:10:09;;;;;;;7.95;3.83;;;;;;;3.05;67.00;99001.72;5051708;28;20100;-70
2021/04/26 03:12:38;;;;;;;7.53;3.58;;;;;;;2.99;67.47;99001.50;5044241;28;20033;-70
2021/04/26 03:15:06;;;;;;;9.80;3.30;;;;;;;2.94;67.04;99003.75;5052239;28;20017;-70
2021/04/26 03:17:32;;;;;;;9.15;3.75;;;;;;;3.04;66.68;98991.19;5052319;28;20043;-70
2021/04/26 03:19:59;;;;;;;5.53;3.30;;;;;;;3.04;66.57;98994.69;5052667;28;20106;-71
2021/04/26 03:22:25;;;;;;;5.28;2.70;;;;;;;3.02;65.40;98969.09;5048253;28;20021;-68
2021/04/26 03:24:50;;;;;;;6.10;3.15;;;;;;;3.27;63.32;98975.53;5052069;28;20453;-70
2021/04/26 03:27:17;;;;;;;6.50;2.88;;;;;;;3.41;63.25;98974.16;5051142;28;20053;-68
2021/04/26 03:29:45;;;;;;;5.28;3.25;;;;;;;3.33;64.75;98971.41;5050994;28;20108;-68
2021/04/26 03:32:14;;;;;;;7.17;3.17;;;;;;;3.12;65.57;98977.91;5042513;28;20025;-68
2021/04/26 03:34:41;;;;;;;11.40;2.92;;;;;;;2.95;65.98;98962.69;5045234;28;20037;-71
2021/04/26 03:37:17;;;;;;;8.20;3.38;;;;;;;2.95;64.63;98958.16;5040330;28;20048;-68
2021/04/26 03:39:44;;;;;;;7.70;3.67;;;;;;;2.96;64.69;98950.97;5050351;28;20045;-70
2021/04/26 03:42:11;;;;;;;8.55;3.35;;;;;;;3.11;64.06;98957.50;5047487;28;20037;-70
2021/04/26 03:44:36;;;;;;;6.47;3.15;;;;;;;3.11;64.59;98968.19;5046741;28;20037;-68
2021/04/26 03:47:05;;;;;;;7.95;4.07;;;;;;;2.96;65.25;98962.53;5043327;28;20025;-70
2021/04/26 03:49:30;;;;;;;10.32;3.17;;;;;;;2.80;67.38;98959.66;5051040;28;20379;-71
2021/04/26 03:51:56;;;;;;;8.65;2.95;;;;;;;2.56;67.32;98952.22;5042512;28;20119;-71
2021/04/26 03:54:22;;;;;;;7.15;3.40;;;;;;;2.42;68.08;98954.38;5040388;28;20386;-70
2021/04/26 03:56:47;;;;;;;7.05;3.10;;;;;;;2.44;68.30;98964.06;5047627;28;20029;-71
2021/04/26 03:59:14;;;;;;;11.13;3.45;;;;;;;2.28;68.13;98954.88;5047095;28;20025;-70
2021/04/26 04:01:39;;;;;;;4.72;2.78;;;;;;;2.27;67.38;98952.34;5045800;28;20025;-70
2021/04/26 04:04:05;;;;;;;8.60;3.80;;;;;;;2.29;66.55;98959.22;5049617;28;20040;-76
2021/04/26 04:06:31;;;;;;;9.05;3.45;;;;;;;2.41;66.03;98963.41;5043017;28;20083;-74
2021/04/26 04:08:59;;;;;;;7.90;3.60;;;;;;;2.37;65.96;98953.16;5028652;28;20037;-76
2021/04/26 04:11:24;;;;;;;8.32;3.90;;;;;;;2.32;66.16;98958.09;5026487;28;20023;-74
2021/04/26 04:13:49;;;;;;;8.15;4.18;;;;;;;2.33;66.11;98947.28;5049057;28;20494;-73
2021/04/26 04:16:15;;;;;;;8.25;4.00;;;;;;;2.52;65.94;98940.16;5033747;28;20070;-74
2021/04/26 04:18:40;;;;;;;10.32;3.75;;;;;;;2.54;66.53;98970.22;5026860;28;20044;-73
2021/04/26 04:21:05;;;;;;;8.80;3.40;;;;;;;2.41;66.30;98957.19;5041871;28;20030;-79
2021/04/26 04:23:31;;;;;;;10.20;4.03;;;;;;;2.31;66.35;98965.28;5053048;28;20378;-76
2021/04/26 04:25:56;;;;;;;8.80;3.53;;;;;;;2.17;66.46;98947.91;5058635;28;20044;-81
2021/04/26 04:28:21;;;;;;;8.02;3.78;;;;;;;2.31;66.61;98967.94;5027373;28;20029;-80
2021/04/26 04:30:49;;;;;;;4.35;2.88;;;;;;;2.22;65.42;98950.13;5021192;28;20088;-80
2021/04/26 04:33:15;;;;;;;5.97;3.00;;;;;;;2.16;65.99;98942.72;5018850;28;20120;-77
2021/04/26 04:35:40;;;;;;;6.38;3.50;;;;;;;2.22;65.96;98949.28;5032127;28;20044;-72
2021/04/26 04:38:06;;;;;;;6.60;2.78;;;;;;;2.35;65.28;98968.47;5068004;28;20029;-82
2021/04/26 04:40:31;;;;;;;6.28;3.03;;;;;;;2.35;65.16;98960.47;5068173;28;20040;-80
2021/04/26 04:42:57;;;;;;;8.15;3.33;;;;;;;2.48;64.94;98971.66;5054855;28;20024;-74
2021/04/26 04:45:22;;;;;;;5.65;3.30;;;;;;;2.60;64.50;98969.63;5056751;28;20029;-78
2021/04/26 04:47:47;;;;;;;6.65;3.15;;;;;;;2.70;64.45;98974.91;5055785;28;20013;-86
2021/04/26 04:50:13;;;;;;;5.55;3.75;;;;;;;2.77;64.42;98968.81;5069751;28;20018;-78
2021/04/26 04:52:40;;;;;;;5.30;2.88;;;;;;;2.75;64.21;98940.56;5043631;28;20009;-72
2021/04/26 04:55:06;;;;;;;9.15;3.25;;;;;;;2.96;63.75;98959.88;5067808;28;20032;-72
2021/04/26 04:57:31;;;;;;;6.82;3.22;;;;;;;3.10;64.49;98955.81;5061322;28;20030;-70
2021/04/26 04:59:57;;;;;;;6.70;3.33;;;;;;;3.09;64.89;98951.44;5058373;28;20608;-71
2021/04/26 05:02:22;;;;;;;12.18;3.67;;;;;;;3.08;65.08;98963.16;5069023;28;20081;-75
2021/04/26 05:04:47;;;;;;;7.53;3.40;;;;;;;2.96;65.31;98948.31;5045932;28;20025;-72
2021/04/26 05:07:13;;;;;;;8.10;3.83;;;;;;;3.14;65.08;98967.03;5037522;28;20085;-72
2021/04/26 05:09:38;;;;;;;9.75;3.80;;;;;;;3.15;65.53;98947.34;5063897;28;20039;-72
2021/04/26 05:12:04;;;;;;;9.38;3.55;;;;;;;3.36;65.17;98963.09;5074308;28;20064;-71
2021/04/26 05:14:31;;;;;;;9.10;3.45;;;;;;;3.42;64.80;98957.13;5051782;28;20044;-73
2021/04/26 05:16:57;;;;;;;7.78;3.20;;;;;;;3.60;64.48;98954.44;5053242;28;20838;-72
2021/04/26 05:19:22;;;;;;;7.63;3.63;;;;;;;3.64;64.33;98943.28;5072864;28;20094;-76
2021/04/26 05:21:47;;;;;;;8.38;3.30;;;;;;;3.87;63.31;98950.78;5056882;28;20029;-79
2021/04/26 05:24:13;;;;;;;5.72;3.40;;;;;;;4.04;62.92;98941.03;5046331;28;20510;-79
2021/04/26 05:26:38;;;;;;;5.70;2.83;;;;;;;4.26;61.78;98936.94;5047701;28;20047;-73
2021/04/26 05:29:04;;;;;;;5.60;3.08;;;;;;;4.61;60.72;98952.84;5045631;28;20885;-75
2021/04/26 05:31:29;;;;;;;6.57;3.13;;;;;;;4.76;59.69;98944.19;5034673;28;20068;-76
2021/04/26 05:33:55;;;;;;;6.57;2.97;;;;;;;4.97;59.33;98947.25;5050057;28;20039;-74
2021/04/26 05:36:20;;;;;;;7.22;3.35;;;;;;;5.30;58.62;98963.41;5052743;28;20095;-77
2021/04/26 05:38:45;;;;;;;5.38;3.45;;;;;;;5.54;57.96;98953.72;5047347;28;20022;-74
2021/04/26 05:41:11;;;;;;;8.38;2.90;;;;;;;5.71;57.56;98948.19;5062534;28;20029;-74
2021/04/26 05:43:36;;;;;;;7.22;2.92;;;;;;;5.90;56.75;98960.41;5069792;28;20033;-78
2021/04/26 05:46:01;;;;;;;4.60;2.78;;;;;;;6.12;56.17;98963.41;5052913;28;20386;-75
2021/04/26 05:48:27;;;;;;;10.95;4.00;;;;;;;6.22;55.85;98958.69;5056286;28;20033;-74
2021/04/26 05:50:54;;;;;;;5.13;2.75;;;;;;;6.39;56.43;98939.84;5070024;28;20382;-68
2021/04/26 05:53:21;;;;;;;5.75;3.08;;;;;;;6.57;55.21;98937.75;5052839;28;20466;-66
2021/04/26 05:55:46;;;;;;;8.00;3.42;;;;;;;6.82;55.28;98943.03;5055309;28;20501;-71
2021/04/26 05:58:12;;;;;;;5.47;3.00;;;;;;;7.08;54.06;98943.56;5040298;28;20028;-79
2021/04/26 06:00:37;;;;;;;4.68;2.95;;;;;;;7.59;53.30;98945.72;5059833;28;20085;-76
2021/04/26 06:03:03;;;;;;;6.30;3.05;;;;;;;8.08;52.21;98943.41;5041883;28;20021;-80
2021/04/26 06:05:28;;;;;;;6.70;3.10;;;;;;;9.04;50.14;98945.34;5035158;28;20059;-75
2021/04/26 06:07:53;;;;;;;6.30;2.90;;;;;;;10.33;47.59;98929.91;5057497;28;20050;-77
2021/04/26 06:10:19;;;;;;;8.10;2.95;;;;;;;12.43;43.24;98931.59;5052487;28;20020;-77
2021/04/26 06:12:44;;;;;;;17.17;3.15;;;;;;;14.35;39.22;98930.66;5032632;28;20025;-78
2021/04/26 06:15:09;;;;;;;7.80;3.17;;;;;;;16.47;35.73;98923.31;5043952;28;20017;-82
2021/04/26 06:17:35;;;;;;;5.90;2.67;;;;;;;17.17;34.31;98931.38;5038359;28;20429;-75
2021/04/26 06:20:00;;;;;;;5.82;3.05;;;;;;;18.09;32.73;98921.28;5050403;28;20441;-76
2021/04/26 06:22:26;;;;;;;5.80;2.90;;;;;;;17.91;32.25;98911.41;5050538;28;20489;-76
2021/04/26 06:24:51;;;;;;;8.05;2.53;;;;;;;18.74;31.43;98903.31;5049692;28;20108;-76
2021/04/26 06:27:16;;;;;;;4.68;2.60;;;;;;;19.22;31.00;98927.25;5035621;28;20044;-77
2021/04/26 06:29:42;;;;;;;7.15;2.67;;;;;;;19.37;30.46;98926.59;5035987;28;20036;-75
2021/04/26 06:32:07;;;;;;;7.20;2.72;;;;;;;19.99;29.97;98921.72;5026897;28;20160;-75
2021/04/26 06:34:32;;;;;;;5.50;2.47;;;;;;;20.82;29.10;98935.78;5042772;28;20033;-72
2021/04/26 06:36:58;;;;;;;5.63;2.75;;;;;;;21.09;28.35;98927.38;5026489;28;20474;-74
2021/04/26 06:39:23;;;;;;;5.13;2.60;;;;;;;21.34;28.03;98936.81;5046947;28;20118;-72
2021/04/26 06:41:49;;;;;;;6.70;2.72;;;;;;;21.66;27.13;98922.88;5033322;28;20029;-75
2021/04/26 06:44:14;;;;;;;12.60;3.20;;;;;;;21.94;27.40;98928.97;5033408;28;20034;-76
2021/04/26 06:46:39;;;;;;;8.50;2.50;;;;;;;23.18;25.79;98929.31;5025829;28;20032;-77
2021/04/26 06:49:05;;;;;;;7.90;2.33;;;;;;;22.02;26.69;98932.00;5030319;28;20029;-73
2021/04/26 06:51:30;;;;;;;4.22;2.35;;;;;;;24.63;24.54;98910.59;5046395;28;20012;-81
2021/04/26 06:53:55;;;;;;;8.23;2.88;;;;;;;24.69;23.57;98906.66;5030678;28;20028;-71
2021/04/26 06:56:21;;;;;;;5.70;2.60;;;;;;;24.33;24.13;98920.00;5054363;28;20040;-67
2021/04/26 06:58:46;;;;;;;7.82;3.05;;;;;;;24.09;24.44;98920.75;5046314;28;20112;-67
2021/04/26 07:01:11;;;;;;;5.70;2.58;;;;;;;23.17;24.71;98916.63;5050097;28;20052;-67
2021/04/26 07:03:37;;;;;;;5.93;2.78;;;;;;;22.59;25.48;98924.53;5052884;28;20020;-67
2021/04/26 07:06:02;;;;;;;4.68;2.50;;;;;;;23.20;25.41;98931.81;5049213;28;20425;-67
2021/04/26 07:08:28;;;;;;;7.03;2.53;;;;;;;22.44;26.27;98925.38;5031948;28;20029;-67
2021/04/26 07:10:53;;;;;;;5.13;2.83;;;;;;;23.22;25.17;98924.06;5041720;28;20025;-67
2021/04/26 07:13:19;;;;;;;7.20;3.20;;;;;;;24.41;24.13;98914.66;5044919;28;20029;-67
2021/04/26 07:15:44;;;;;;;6.70;2.75;;;;;;;24.75;24.28;98915.72;5039204;28;20040;-67
2021/04/26 07:18:10;;;;;;;8.48;2.75;;;;;;;25.15;24.14;98897.78;5045488;28;20029;-77
2021/04/26 07:20:35;;;;;;;5.63;2.72;;;;;;;24.76;23.76;98890.53;5032170;28;20025;-68
2021/04/26 07:23:01;;;;;;;9.50;2.97;;;;;;;24.89;23.69;98900.06;5035231;28;20060;-75
2021/04/26 07:25:27;;;;;;;5.80;2.75;;;;;;;25.28;23.03;98899.88;5033828;28;20025;-74
2021/04/26 07:27:52;;;;;;;5.97;3.30;;;;;;;24.83;22.78;98879.09;5021894;28;20029;-69
2021/04/26 07:30:18;;;;;;;7.57;3.00;;;;;;;23.24;24.96;98894.25;5039950;28;20014;-65
2021/04/26 07:32:44;;;;;;;6.28;3.28;;;;;;;23.60;24.84;98894.00;5046683;28;20395;-74
2021/04/26 07:35:12;;;;;;;10.07;2.63;;;;;;;24.04;24.51;98879.34;5050645;28;20032;-71
2021/04/26 07:37:41;;;;;;;3.95;2.75;;;;;;;24.81;23.05;98875.78;5030726;28;20033;-72
2021/04/26 07:40:10;;;;;;;5.95;2.90;;;;;;;23.58;24.29;98877.75;5050000;28;20044;-74
2021/04/26 07:42:36;;;;;;;8.63;3.08;;;;;;;24.92;23.30;98878.16;5043440;28;20052;-71
2021/04/26 07:45:02;;;;;;;6.22;2.90;;;;;;;24.97;22.99;98882.81;5044553;28;20056;-75
2021/04/26 07:47:28;;;;;;;6.45;3.20;;;;;;;23.95;23.27;98870.84;5044432;28;20024;-72
2021/04/26 07:49:53;;;;;;;3.80;2.47;;;;;;;23.44;24.03;98867.63;5043274;28;20552;-75
2021/04/26 07:52:18;;;;;;;4.68;2.58;;;;;;;22.81;24.91;98882.00;5045325;28;20017;-74
2021/04/26 07:54:43;;;;;;;6.57;3.10;;;;;;;23.98;23.44;98866.69;5048700;28;20043;-73
2021/04/26 07:57:09;;;;;;;6.90;3.25;;;;;;;23.36;24.20;98875.38;5032282;28;20031;-75
2021/04/26 07:59:34;;;;;;;5.63;2.83;;;;;;;23.65;24.04;98873.81;5028103;28;20056;-74
2021/04/26 08:02:00;;;;;;;6.80;3.00;;;;;;;23.90;23.32;98879.19;5047525;28;20103;-74
2021/04/26 08:04:25;;;;;;;4.60;2.67;;;;;;;23.78;24.33;98884.25;5029912;28;20037;-68
2021/04/26 08:06:50;;;;;;;6.70;3.53;;;;;;;23.75;23.84;98871.03;5046082;28;20025;-76
2021/04/26 08:09:16;;;;;;;5.80;3.13;;;;;;;23.11;24.40;98864.50;5027160;28;20367;-75
2021/04/26 08:11:41;;;;;;;5.00;2.97;;;;;;;23.74;24.25;98875.72;5029456;28;20051;-69
2021/04/26 08:14:07;;;;;;;7.07;3.13;;;;;;;24.50;23.39;98862.34;5044221;28;20032;-72
2021/04/26 08:16:32;;;;;;;4.32;2.63;;;;;;;25.06;22.84;98867.16;5044484;28;20063;-77
2021/04/26 08:18:57;;;;;;;5.47;3.05;;;;;;;25.34;23.15;98856.31;5031338;28;20025;-74
2021/04/26 08:21:23;;;;;;;6.05;2.90;;;;;;;24.04;24.03;98873.81;5044884;28;20026;-73
2021/04/26 08:23:49;;;;;;;5.43;2.78;;;;;;;24.77;23.85;98847.91;5050989;28;20029;-74
2021/04/26 08:26:14;;;;;;;7.60;2.95;;;;;;;24.18;23.69;98855.44;5033254;28;20595;-75
2021/04/26 08:28:40;;;;;;;9.07;3.20;;;;;;;26.09;22.95;98866.47;5051464;28;20074;-77
2021/04/26 08:31:08;;;;;;;8.30;3.72;;;;;;;27.23;22.02;98850.13;5034446;28;20155;-77
2021/04/26 08:33:35;;;;;;;4.72;2.70;;;;;;;26.99;21.55;98852.31;5046902;28;20025;-76
2021/04/26 08:36:00;;;;;;;4.03;2.58;;;;;;;26.57;22.42;98848.72;5049784;28;20509;-75
2021/04/26 08:38:25;;;;;;;6.68;2.95;;;;;;;26.76;22.01;98841.09;5045247;28;20025;-75
2021/04/26 08:40:51;;;;;;;9.07;4.20;;;;;;;26.42;21.82;98847.84;5097186;22;20052;-72
2021/04/26 08:43:16;;;;;;;6.82;3.00;;;;;;;27.64;21.26;98838.06;5062137;28;20470;-77
2021/04/26 08:45:42;;;;;;;5.18;2.90;;;;;;;27.29;21.79;98837.75;5061372;28;20043;-77
2021/04/26 08:48:07;;;;;;;7.47;3.08;;;;;;;26.78;22.61;98836.06;5081840;28;20687;-77
2021/04/26 08:50:33;;;;;;;4.68;2.97;;;;;;;25.29;23.09;98842.53;5078740;28;20074;-77
2021/04/26 08:52:58;;;;;;;4.95;2.65;;;;;;;26.17;23.06;98834.44;5066076;28;20025;-77
2021/04/26 08:55:24;;;;;;;5.25;3.13;;;;;;;26.01;22.89;98831.94;5063972;28;20028;-75
2021/04/26 08:57:50;;;;;;;7.00;2.90;;;;;;;25.52;23.71;98836.09;5047474;28;20104;-75
2021/04/26 09:00:17;;;;;;;6.47;2.65;;;;;;;27.22;22.17;98825.41;5067506;28;20051;-73
2021/04/26 09:02:53;;;;;;;7.18;2.97;;;;;;;26.02;23.42;98825.28;5050607;28;20033;-77
2021/04/26 09:05:24;;;;;;;5.70;2.75;;;;;;;26.95;22.24;98820.72;5077683;28;20048;-77
2021/04/26 09:07:52;;;;;;;6.90;3.08;;;;;;;26.56;22.47;98835.97;5076327;28;20478;-75
2021/04/26 09:10:41;;;;;;;7.63;3.00;;;;;;;27.49;21.59;98816.19;5073585;28;20017;-79
2021/04/26 09:13:36;;;;;;;6.05;2.90;;;;;;;25.93;22.50;98829.06;5073123;28;20016;-76
2021/04/26 09:16:04;;;;;;;8.65;2.80;;;;;;;26.34;22.67;98823.59;5092487;28;20031;-74
2021/04/26 09:18:50;;;;;;;8.25;3.05;;;;;;;25.53;23.24;98821.09;5079270;28;20470;-77
2021/04/26 09:21:25;;;;;;;7.38;3.10;;;;;;;25.84;23.23;98820.63;5057011;28;20107;-75
2021/04/26 09:24:24;;;;;;;7.38;3.22;;;;;;;25.35;23.50;98824.72;5051097;28;20055;-75
2021/04/26 09:26:51;;;;;;;4.95;2.97;;;;;;;26.21;22.96;98824.41;5050997;28;20044;-79
2021/04/26 09:29:28;;;;;;;5.70;2.92;;;;;;;26.93;22.58;98809.09;5060680;28;20430;-79
2021/04/26 09:32:13;;;;;;;5.70;3.00;;;;;;;28.32;21.21;98808.22;5053229;28;20078;-80
2021/04/26 09:34:46;;;;;;;7.45;3.05;;;;;;;28.52;21.28;98809.63;5064138;28;20029;-77
2021/04/26 09:37:15;;;;;;;4.55;2.85;;;;;;;27.92;20.95;98804.56;5076774;28;20034;-83
2021/04/26 09:40:08;;;;;;;4.18;2.55;;;;;;;27.70;22.00;98803.44;5086913;28;20029;-79
2021/04/26 09:42:55;;;;;;;6.05;2.60;;;;;;;27.76;21.82;98802.16;5078719;28;20036;-76
2021/04/26 09:45:24;;;;;;;5.63;2.88;;;;;;;26.96;22.39;98802.91;5070806;28;20524;-77
2021/04/26 09:48:08;;;;;;;6.43;2.90;;;;;;;28.14;21.85;98789.81;5057859;28;20043;-79
2021/04/26 09:50:48;;;;;;;4.38;3.00;;;;;;;28.39;21.98;98793.84;5059085;28;20354;-70
2021/04/26 09:53:13;;;;;;;5.55;2.92;;;;;;;28.41;22.82;98792.38;5066507;28;20040;-70
2021/04/26 09:55:38;;;;;;;5.10;3.13;;;;;;;27.90;21.32;98788.22;5071278;28;20033;-69
2021/04/26 09:58:04;;;;;;;8.30;2.60;;;;;;;29.42;20.84;98783.25;5066247;28;20040;-69
2021/04/26 10:00:29;;;;;;;5.10;2.95;;;;;;;29.22;20.51;98777.22;5070837;28;20469;-69
2021/04/26 10:02:55;;;;;;;8.10;2.78;;;;;;;28.64;21.39;98775.63;5065062;28;20029;-72
2021/04/26 10:05:20;;;;;;;4.63;2.45;;;;;;;29.37;21.29;98773.13;5067548;28;20494;-70
2021/04/26 10:07:48;;;;;;;6.93;2.90;;;;;;;29.31;21.17;98760.47;5066884;28;20048;-78
2021/04/26 10:10:14;;;;;;;4.05;2.08;;;;;;;29.69;20.87;98770.97;5088374;28;20393;-79
2021/04/26 10:12:39;;;;;;;7.03;2.92;;;;;;;28.58;21.43;98763.81;5076531;28;20028;-76
2021/04/26 10:15:05;;;;;;;7.97;2.70;;;;;;;27.54;22.27;98772.41;5073247;28;20032;-71
2021/04/26 10:17:32;;;;;;;6.28;2.80;;;;;;;27.96;21.76;98772.22;5072465;28;20299;-71
2021/04/26 10:19:57;;;;;;;4.85;2.40;;;;;;;26.74;22.75;98765.66;5072452;28;20028;-71
2021/04/26 10:22:34;;;;;;;6.85;2.78;;;;;;;27.94;21.67;98769.75;5051202;28;20364;-71
2021/04/26 10:25:00;;;;;;;4.70;2.92;;;;;;;27.91;21.74;98770.38;5069634;28;20047;-71
2021/04/26 10:27:31;;;;;;;7.20;2.67;;;;;;;27.50;20.99;98759.47;5073787;28;20032;-69
2021/04/26 10:30:08;;;;;;;5.22;2.47;;;;;;;28.13;20.85;98761.16;5068138;28;20070;-70
2021/04/26 10:32:55;;;;;;;4.80;2.42;;;;;;;28.40;20.72;98759.28;5073241;28;20060;-70
2021/04/26 10:35:22;;;;;;;4.82;2.30;;;;;;;27.92;21.16;98746.19;5064397;28;20389;-70
2021/04/26 10:37:47;;;;;;;6.95;3.10;;;;;;;27.47;21.13;98749.00;5066684;28;20161;-70
2021/04/26 10:40:19;;;;;;;6.00;2.88;;;;;;;27.24;21.25;98743.41;5068819;28;20080;-70
2021/04/26 10:42:53;;;;;;;4.22;2.40;;;;;;;27.70;21.34;98750.59;5070253;28;20067;-70
2021/04/26 10:45:22;;;;;;;3.28;2.50;;;;;;;26.27;22.69;98744.69;5069375;28;20085;-70
2021/04/26 10:47:57;;;;;;;5.63;2.55;;;;;;;24.67;23.50;98737.34;5067590;28;20765;-69
2021/04/26 10:50:22;;;;;;;6.85;3.00;;;;;;;22.97;24.28;98748.41;5069037;28;20036;-69
2021/04/26 10:52:54;;;;;;;6.50;2.80;;;;;;;25.54;23.39;98739.66;5051078;28;20684;-69
2021/04/26 10:55:19;;;;;;;4.63;3.00;;;;;;;26.70;22.74;98738.81;5067611;28;20024;-69
2021/04/26 10:57:56;;;;;;;5.80;3.10;;;;;;;26.88;22.39;98723.97;5069368;28;20085;-69
2021/04/26 11:00:29;;;;;;;6.72;2.80;;;;;;;27.59;22.68;98720.59;5055301;28;20263;-70
2021/04/26 11:02:57;;;;;;;4.85;2.55;;;;;;;27.94;21.07;98722.47;5052135;28;20029;-68
2021/04/26 11:05:37;;;;;;;5.95;2.70;;;;;;;28.87;19.65;98715.03;5065959;28;20078;-71
2021/04/26 11:08:11;;;;;;;4.78;2.75;;;;;;;27.69;20.69;98715.63;5052573;28;20028;-68
2021/04/26 11:10:53;;;;;;;7.05;2.70;;;;;;;26.88;22.08;98716.47;5049548;28;20029;-68
2021/04/26 11:13:30;;;;;;;5.43;2.80;;;;;;;27.82;21.23;98705.56;5055683;28;20032;-68
2021/04/26 11:16:04;;;;;;;7.82;3.03;;;;;;;27.68;20.33;98700.06;5068182;28;20532;-68
2021/04/26 11:18:31;;;;;;;5.05;2.47;;;;;;;27.13;20.85;98689.22;5068461;28;20032;-67
2021/04/26 11:20:56;;;;;;;5.68;2.42;;;;;;;27.24;20.53;98690.63;5067955;28;20079;-67
2021/04/26 11:23:44;;;;;;;4.85;2.55;;;;;;;26.23;20.30;98672.41;5068663;28;20198;-68
2021/04/26 11:26:12;;;;;;;6.90;3.10;;;;;;;27.51;20.38;98661.09;5065385;28;20436;-67
2021/04/26 11:29:13;;;;;;;3.92;2.55;;;;;;;26.65;20.25;98676.75;5062264;28;20063;-67
2021/04/26 11:31:42;;;;;;;4.65;2.50;;;;;;;26.36;21.36;98670.75;5066864;28;20024;-66
2021/04/26 11:34:16;;;;;;;5.22;2.88;;;;;;;26.56;21.04;98652.81;5066987;28;20076;-67
2021/04/26 11:37:08;;;;;;;10.63;2.70;;;;;;;26.61;20.90;98661.84;5068849;28;20028;-68
2021/04/26 11:39:40;;;;;;;6.60;3.08;;;;;;;27.46;19.64;98650.09;5053633;28;20136;-71
2021/04/26 11:42:07;;;;;;;5.15;2.45;;;;;;;27.05;18.88;98660.25;5058361;28;20501;-70